createdAt,value
2018-03-01T00:00:40.963Z,1022.16
2018-03-01T00:01:40.958Z,1022.10
2018-03-01T00:02:40.937Z,1022.13
2018-03-01T00:03:40.921Z,1022.11
2018-03-01T00:04:40.903Z,1022.08
2018-03-01T00:05:40.883Z,1022.09
2018-03-01T00:06:40.869Z,1022.10
2018-03-01T00:07:40.851Z,1022.02
2018-03-01T00:08:40.836Z,1022.04
2018-03-01T00:09:40.822Z,1022.04
2018-03-01T00:10:40.800Z,1022.01
2018-03-01T00:11:40.787Z,1022.00
2018-03-01T00:12:40.769Z,1021.97
2018-03-01T00:13:40.750Z,1021.95
2018-03-01T00:14:40.746Z,1021.97
2018-03-01T00:15:40.721Z,1021.96
2018-03-01T00:16:40.704Z,1021.95
2018-03-01T00:17:40.686Z,1021.93
2018-03-01T00:18:40.674Z,1021.91
2018-03-01T00:19:40.654Z,1021.91
2018-03-01T00:20:40.643Z,1021.92
2018-03-01T00:21:40.623Z,1021.86
2018-03-01T00:22:40.606Z,1021.84
2018-03-01T00:23:40.589Z,1021.87
2018-03-01T00:24:40.574Z,1021.87
2018-03-01T00:25:40.554Z,1021.81
2018-03-01T00:26:40.541Z,1021.84
2018-03-01T00:27:40.528Z,1021.87
2018-03-01T00:28:40.506Z,1021.84
2018-03-01T00:29:40.490Z,1021.82
2018-03-01T00:30:40.471Z,1021.82
2018-03-01T00:31:40.456Z,1021.88
2018-03-01T00:32:40.450Z,1021.88
2018-03-01T00:33:40.432Z,1021.90
2018-03-01T00:34:40.404Z,1021.93
2018-03-01T00:35:40.395Z,1021.95
2018-03-01T00:36:40.377Z,1021.90
2018-03-01T00:37:40.357Z,1021.90
2018-03-01T00:38:40.337Z,1021.83
2018-03-01T00:39:40.323Z,1021.86
2018-03-01T00:40:40.307Z,1021.79
2018-03-01T00:41:40.335Z,1021.76
2018-03-01T00:42:40.274Z,1021.71
2018-03-01T00:43:40.256Z,1021.83
2018-03-01T00:44:40.240Z,1021.79
2018-03-01T00:45:40.226Z,1021.75
2018-03-01T00:46:40.207Z,1021.74
2018-03-01T00:47:40.195Z,1021.73
2018-03-01T00:48:40.173Z,1021.71
2018-03-01T00:49:40.156Z,1021.69
2018-03-01T00:50:40.140Z,1021.65
2018-03-01T00:51:40.124Z,1021.66
2018-03-01T00:52:40.107Z,1021.67
2018-03-01T00:53:40.148Z,1021.62
2018-03-01T00:54:40.073Z,1021.60
2018-03-01T00:55:40.056Z,1021.58
2018-03-01T00:56:40.046Z,1021.53
2018-03-01T00:57:40.023Z,1021.50
2018-03-01T00:58:40.010Z,1021.49
2018-03-01T00:59:39.988Z,1021.47
2018-03-01T01:00:39.975Z,1021.46
2018-03-01T01:01:39.954Z,1021.48
2018-03-01T01:02:39.939Z,1021.43
2018-03-01T01:03:39.919Z,1021.42
2018-03-01T01:04:39.903Z,1021.43
2018-03-01T01:05:39.886Z,1021.38
2018-03-01T01:06:39.870Z,1021.38
2018-03-01T01:07:39.860Z,1021.33
2018-03-01T01:08:39.839Z,1021.30
2018-03-01T01:09:39.819Z,1021.28
2018-03-01T01:10:39.802Z,1021.25
2018-03-01T01:11:39.788Z,1021.23
2018-03-01T01:12:39.768Z,1021.19
2018-03-01T01:13:39.751Z,1021.25
2018-03-01T01:14:39.736Z,1021.27
2018-03-01T01:15:39.719Z,1021.22
2018-03-01T01:16:39.703Z,1021.20
2018-03-01T01:17:39.682Z,1021.20
2018-03-01T01:18:39.670Z,1021.21
2018-03-01T01:19:39.651Z,1021.14
2018-03-01T01:20:39.640Z,1021.11
2018-03-01T01:21:39.615Z,1021.09
2018-03-01T01:22:39.600Z,1021.09
2018-03-01T01:23:39.585Z,1021.07
2018-03-01T01:24:39.566Z,1021.09
2018-03-01T01:25:39.549Z,1021.04
2018-03-01T01:26:39.530Z,1021.07
2018-03-01T01:27:39.513Z,1021.04
2018-03-01T01:28:39.505Z,1021.01
2018-03-01T01:29:39.479Z,1021.02
2018-03-01T01:30:39.464Z,1020.96
2018-03-01T01:31:39.444Z,1020.97
2018-03-01T01:32:39.430Z,1021.00
2018-03-01T01:33:39.412Z,1020.92
2018-03-01T01:34:39.396Z,1020.89
2018-03-01T01:35:39.379Z,1020.88
2018-03-01T01:36:39.371Z,1020.88
2018-03-01T01:37:39.347Z,1020.96
2018-03-01T01:38:39.333Z,1020.93
2018-03-01T01:39:39.313Z,1020.93
2018-03-01T01:40:39.293Z,1020.92
2018-03-01T01:41:39.276Z,1020.91
2018-03-01T01:42:39.261Z,1020.88
2018-03-01T01:43:39.254Z,1020.88
2018-03-01T01:44:39.227Z,1020.91
2018-03-01T01:45:39.208Z,1020.87
2018-03-01T01:46:39.192Z,1020.91
2018-03-01T01:47:39.174Z,1020.93
2018-03-01T01:48:39.158Z,1020.88
2018-03-01T01:49:39.139Z,1020.89
2018-03-01T01:50:39.126Z,1020.92
2018-03-01T01:51:39.107Z,1020.91
2018-03-01T01:52:39.092Z,1020.87
2018-03-01T01:53:39.074Z,1020.91
2018-03-01T01:54:39.058Z,1020.91
2018-03-01T01:55:39.037Z,1020.88
2018-03-01T01:56:39.022Z,1020.84
2018-03-01T01:57:39.007Z,1020.80
2018-03-01T01:58:38.987Z,1020.80
2018-03-01T01:59:39.019Z,1020.79
2018-03-01T02:00:38.963Z,1020.81
2018-03-01T02:01:38.937Z,1020.77
2018-03-01T02:02:38.918Z,1020.72
2018-03-01T02:03:38.905Z,1020.73
2018-03-01T02:04:38.887Z,1020.70
2018-03-01T02:05:38.866Z,1020.69
2018-03-01T02:06:38.856Z,1020.67
2018-03-01T02:07:38.839Z,1020.60
2018-03-01T02:08:38.818Z,1020.60
2018-03-01T02:09:38.796Z,1020.56
2018-03-01T02:10:38.783Z,1020.51
2018-03-01T02:11:38.763Z,1020.46
2018-03-01T02:12:38.750Z,1020.45
2018-03-01T02:13:38.731Z,1020.38
2018-03-01T02:14:38.713Z,1020.36
2018-03-01T02:15:38.697Z,1020.40
2018-03-01T02:16:38.685Z,1020.38
2018-03-01T02:17:38.665Z,1020.32
2018-03-01T02:18:38.643Z,1020.36
2018-03-01T02:19:38.628Z,1020.31
2018-03-01T02:20:38.611Z,1020.30
2018-03-01T02:21:38.593Z,1020.27
2018-03-01T02:22:38.579Z,1020.27
2018-03-01T02:23:38.560Z,1020.25
2018-03-01T02:24:38.543Z,1020.25
2018-03-01T02:25:38.522Z,1020.21
2018-03-01T02:26:38.507Z,1020.17
2018-03-01T02:27:38.489Z,1020.13
2018-03-01T02:28:38.473Z,1020.15
2018-03-01T02:29:38.453Z,1020.11
2018-03-01T02:30:38.439Z,1020.05
2018-03-01T02:31:38.422Z,1020.11
2018-03-01T02:32:38.412Z,1020.09
2018-03-01T02:33:38.390Z,1020.06
2018-03-01T02:34:38.369Z,1020.01
2018-03-01T02:35:38.356Z,1019.99
2018-03-01T02:36:38.336Z,1019.98
2018-03-01T02:37:38.321Z,1019.99
2018-03-01T02:38:38.298Z,1019.93
2018-03-01T02:39:38.280Z,1019.94
2018-03-01T02:40:38.268Z,1019.93
2018-03-01T02:41:38.247Z,1019.91
2018-03-01T02:42:38.230Z,1019.93
2018-03-01T02:43:38.213Z,1019.87
2018-03-01T02:44:38.198Z,1019.92
2018-03-01T02:45:38.182Z,1019.92
2018-03-01T02:46:38.170Z,1019.90
2018-03-01T02:47:38.143Z,1019.90
2018-03-01T02:48:38.127Z,1019.89
2018-03-01T02:49:38.108Z,1019.89
2018-03-01T02:50:38.092Z,1019.91
2018-03-01T02:51:38.074Z,1019.91
2018-03-01T02:52:38.059Z,1019.92
2018-03-01T02:53:38.040Z,1019.88
2018-03-01T02:54:38.023Z,1019.94
2018-03-01T02:55:38.006Z,1019.92
2018-03-01T02:56:37.986Z,1019.88
2018-03-01T02:57:37.970Z,1019.89
2018-03-01T02:58:37.958Z,1019.89
2018-03-01T02:59:37.940Z,1019.89
2018-03-01T03:00:37.921Z,1019.87
2018-03-01T03:01:37.903Z,1019.86
2018-03-01T03:02:37.884Z,1019.86
2018-03-01T03:03:37.872Z,1019.85
2018-03-01T03:04:37.850Z,1019.87
2018-03-01T03:05:37.837Z,1019.85
2018-03-01T03:06:37.813Z,1019.86
2018-03-01T03:07:37.798Z,1019.82
2018-03-01T03:08:37.783Z,1019.76
2018-03-01T03:09:37.762Z,1019.78
2018-03-01T03:10:37.747Z,1019.75
2018-03-01T03:11:37.731Z,1019.74
2018-03-01T03:12:37.716Z,1019.67
2018-03-01T03:13:37.696Z,1019.65
2018-03-01T03:14:37.676Z,1019.70
2018-03-01T03:15:37.661Z,1019.64
2018-03-01T03:16:37.644Z,1019.68
2018-03-01T03:17:37.624Z,1019.68
2018-03-01T03:18:37.609Z,1019.73
2018-03-01T03:19:37.592Z,1019.68
2018-03-01T03:20:37.577Z,1019.66
2018-03-01T03:21:37.556Z,1019.67
2018-03-01T03:22:37.550Z,1019.71
2018-03-01T03:23:37.523Z,1019.66
2018-03-01T03:24:37.505Z,1019.71
2018-03-01T03:25:37.488Z,1019.70
2018-03-01T03:26:37.469Z,1019.67
2018-03-01T03:27:37.456Z,1019.63
2018-03-01T03:28:37.446Z,1019.60
2018-03-01T03:29:37.418Z,1019.61
2018-03-01T03:30:37.402Z,1019.60
2018-03-01T03:31:37.388Z,1019.59
2018-03-01T03:32:37.367Z,1019.60
2018-03-01T03:33:37.356Z,1019.62
2018-03-01T03:34:37.331Z,1019.59
2018-03-01T03:35:37.314Z,1019.60
2018-03-01T03:36:37.299Z,1019.57
2018-03-01T03:37:37.285Z,1019.62
2018-03-01T03:38:37.263Z,1019.58
2018-03-01T03:39:37.245Z,1019.62
2018-03-01T03:40:37.227Z,1019.58
2018-03-01T03:41:37.211Z,1019.53
2018-03-01T03:42:37.189Z,1019.50
2018-03-01T03:43:37.172Z,1019.56
2018-03-01T03:44:37.159Z,1019.53
2018-03-01T03:45:37.141Z,1019.53
2018-03-01T03:46:37.125Z,1019.54
2018-03-01T03:47:37.107Z,1019.51
2018-03-01T03:48:37.088Z,1019.50
2018-03-01T03:49:37.073Z,1019.55
2018-03-01T03:50:37.060Z,1019.54
2018-03-01T03:51:37.035Z,1019.48
2018-03-01T03:52:37.019Z,1019.47
2018-03-01T03:53:37.002Z,1019.51
2018-03-01T03:54:36.985Z,1019.52
2018-03-01T03:55:36.967Z,1019.50
2018-03-01T03:56:36.951Z,1019.53
2018-03-01T03:57:36.932Z,1019.51
2018-03-01T03:58:36.916Z,1019.52
2018-03-01T03:59:36.897Z,1019.44
2018-03-01T04:00:36.882Z,1019.43
2018-03-01T04:01:36.863Z,1019.46
2018-03-01T04:02:36.854Z,1019.47
2018-03-01T04:03:36.832Z,1019.47
2018-03-01T04:04:36.810Z,1019.43
2018-03-01T04:05:36.792Z,1019.47
2018-03-01T04:06:36.774Z,1019.45
2018-03-01T04:07:36.756Z,1019.49
2018-03-01T04:08:36.742Z,1019.46
2018-03-01T04:09:36.720Z,1019.45
2018-03-01T04:10:36.703Z,1019.46
2018-03-01T04:11:36.694Z,1019.46
2018-03-01T04:12:36.671Z,1019.41
2018-03-01T04:13:36.708Z,1019.52
2018-03-01T04:14:36.632Z,1019.41
2018-03-01T04:15:36.621Z,1019.43
2018-03-01T04:16:36.598Z,1019.42
2018-03-01T04:17:36.577Z,1019.43
2018-03-01T04:18:36.564Z,1019.44
2018-03-01T04:19:36.544Z,1019.39
2018-03-01T04:20:36.528Z,1019.37
2018-03-01T04:21:36.509Z,1019.41
2018-03-01T04:22:36.491Z,1019.36
2018-03-01T04:23:36.474Z,1019.39
2018-03-01T04:24:36.457Z,1019.39
2018-03-01T04:25:36.436Z,1019.49
2018-03-01T04:26:36.424Z,1019.46
2018-03-01T04:27:36.404Z,1019.48
2018-03-01T04:28:36.391Z,1019.47
2018-03-01T04:29:36.368Z,1019.51
2018-03-01T04:30:36.350Z,1019.49
2018-03-01T04:31:36.333Z,1019.50
2018-03-01T04:32:36.318Z,1019.43
2018-03-01T04:33:36.307Z,1019.49
2018-03-01T04:34:36.281Z,1019.52
2018-03-01T04:35:36.263Z,1019.48
2018-03-01T04:36:36.246Z,1019.52
2018-03-01T04:37:36.226Z,1019.48
2018-03-01T04:38:36.221Z,1019.50
2018-03-01T04:39:36.192Z,1019.50
2018-03-01T04:40:36.174Z,1019.45
2018-03-01T04:41:36.149Z,1019.41
2018-03-01T04:42:36.129Z,1019.39
2018-03-01T04:43:36.117Z,1019.42
2018-03-01T04:44:36.098Z,1019.42
2018-03-01T04:45:36.078Z,1019.39
2018-03-01T04:46:36.061Z,1019.44
2018-03-01T04:47:36.048Z,1019.42
2018-03-01T04:48:36.031Z,1019.40
2018-03-01T04:49:36.009Z,1019.40
2018-03-01T04:50:35.991Z,1019.41
2018-03-01T04:51:35.979Z,1019.37
2018-03-01T04:52:35.956Z,1019.37
2018-03-01T04:53:35.940Z,1019.39
2018-03-01T04:54:35.917Z,1019.37
2018-03-01T04:55:35.902Z,1019.33
2018-03-01T04:56:35.886Z,1019.33
2018-03-01T04:57:35.869Z,1019.33
2018-03-01T04:58:35.849Z,1019.30
2018-03-01T04:59:35.831Z,1019.34
2018-03-01T05:00:35.818Z,1019.34
2018-03-01T05:01:35.796Z,1019.33
2018-03-01T05:02:35.776Z,1019.28
2018-03-01T05:03:35.758Z,1019.26
2018-03-01T05:04:35.744Z,1019.24
2018-03-01T05:05:35.724Z,1019.23
2018-03-01T05:06:35.708Z,1019.24
2018-03-01T05:07:35.685Z,1019.19
2018-03-01T05:08:35.673Z,1019.20
2018-03-01T05:09:35.664Z,1019.22
2018-03-01T05:10:35.636Z,1019.21
2018-03-01T05:11:35.611Z,1019.20
2018-03-01T05:12:36.354Z,1019.20
2018-03-01T05:13:35.588Z,1019.22
2018-03-01T05:14:35.563Z,1019.23
2018-03-01T05:15:35.545Z,1019.21
2018-03-01T05:16:35.530Z,1019.21
2018-03-01T05:17:35.510Z,1019.22
2018-03-01T05:18:35.498Z,1019.22
2018-03-01T05:19:35.478Z,1019.15
2018-03-01T05:20:35.466Z,1019.13
2018-03-01T05:21:35.441Z,1019.14
2018-03-01T05:22:35.423Z,1019.10
2018-03-01T05:23:35.402Z,1019.06
2018-03-01T05:24:35.384Z,1019.03
2018-03-01T05:25:35.367Z,1019.07
2018-03-01T05:26:35.350Z,1019.02
2018-03-01T05:27:35.333Z,1018.95
2018-03-01T05:28:35.316Z,1018.98
2018-03-01T05:29:35.296Z,1019.03
2018-03-01T05:30:35.279Z,1019.00
2018-03-01T05:31:35.261Z,1018.99
2018-03-01T05:32:35.243Z,1018.95
2018-03-01T05:33:35.227Z,1018.98
2018-03-01T05:34:35.209Z,1018.93
2018-03-01T05:35:35.195Z,1018.92
2018-03-01T05:36:35.174Z,1019.03
2018-03-01T05:37:35.158Z,1019.03
2018-03-01T05:38:35.140Z,1018.95
2018-03-01T05:39:35.118Z,1018.89
2018-03-01T05:40:35.101Z,1018.96
2018-03-01T05:41:35.082Z,1018.91
2018-03-01T05:42:35.066Z,1018.94
2018-03-01T05:43:35.052Z,1018.84
2018-03-01T05:44:35.029Z,1018.88
2018-03-01T05:45:35.014Z,1018.85
2018-03-01T05:46:34.992Z,1018.86
2018-03-01T05:47:34.987Z,1018.80
2018-03-01T05:48:34.956Z,1018.76
2018-03-01T05:49:34.939Z,1018.80
2018-03-01T05:50:34.920Z,1018.81
2018-03-01T05:51:34.904Z,1018.84
2018-03-01T05:52:34.885Z,1018.77
2018-03-01T05:53:34.870Z,1018.80
2018-03-01T05:54:34.849Z,1018.85
2018-03-01T05:55:34.839Z,1018.70
2018-03-01T05:56:34.813Z,1018.77
2018-03-01T05:57:34.794Z,1018.84
2018-03-01T05:58:34.777Z,1018.76
2018-03-01T05:59:35.450Z,1018.69
2018-03-01T06:00:34.738Z,1018.71
2018-03-01T06:01:34.722Z,1018.76
2018-03-01T06:02:34.707Z,1018.72
2018-03-01T06:03:34.688Z,1018.75
2018-03-01T06:04:34.667Z,1018.73
2018-03-01T06:05:34.648Z,1018.73
2018-03-01T06:06:34.631Z,1018.68
2018-03-01T06:07:34.617Z,1018.69
2018-03-01T06:08:34.596Z,1018.66
2018-03-01T06:09:34.577Z,1018.63
2018-03-01T06:10:34.557Z,1018.59
2018-03-01T06:11:34.540Z,1018.65
2018-03-01T06:12:34.532Z,1018.65
2018-03-01T06:13:34.508Z,1018.63
2018-03-01T06:14:34.515Z,1018.63
2018-03-01T06:15:34.468Z,1018.68
2018-03-01T06:16:34.450Z,1018.65
2018-03-01T06:17:34.433Z,1018.61
2018-03-01T06:18:34.413Z,1018.64
2018-03-01T06:19:34.398Z,1018.55
2018-03-01T06:20:34.404Z,1018.65
2018-03-01T06:21:34.360Z,1018.56
2018-03-01T06:22:34.344Z,1018.48
2018-03-01T06:23:34.321Z,1018.53
2018-03-01T06:24:34.305Z,1018.45
2018-03-01T06:25:34.287Z,1018.42
2018-03-01T06:26:34.269Z,1018.40
2018-03-01T06:27:34.252Z,1018.41
2018-03-01T06:28:34.233Z,1018.31
2018-03-01T06:29:34.212Z,1018.29
2018-03-01T06:30:34.193Z,1018.33
2018-03-01T06:31:34.178Z,1018.33
2018-03-01T06:32:34.161Z,1018.43
2018-03-01T06:33:34.141Z,1018.38
2018-03-01T06:34:34.123Z,1018.37
2018-03-01T06:35:34.105Z,1018.39
2018-03-01T06:36:34.089Z,1018.34
2018-03-01T06:37:34.069Z,1018.38
2018-03-01T06:38:34.050Z,1018.31
2018-03-01T06:39:34.031Z,1018.37
2018-03-01T06:40:34.014Z,1018.39
2018-03-01T06:41:33.995Z,1018.36
2018-03-01T06:42:34.021Z,1018.37
2018-03-01T06:43:33.958Z,1018.36
2018-03-01T06:44:33.944Z,1018.28
2018-03-01T06:45:33.932Z,1018.27
2018-03-01T06:46:33.905Z,1018.29
2018-03-01T06:47:33.888Z,1018.21
2018-03-01T06:48:33.871Z,1018.20
2018-03-01T06:49:33.854Z,1018.18
2018-03-01T06:50:33.833Z,1018.19
2018-03-01T06:51:33.817Z,1018.16
2018-03-01T06:52:33.802Z,1018.10
2018-03-01T06:53:33.777Z,1018.12
2018-03-01T06:54:33.765Z,1018.07
2018-03-01T06:55:33.744Z,1018.11
2018-03-01T06:56:33.727Z,1018.13
2018-03-01T06:57:33.706Z,1017.96
2018-03-01T06:58:33.690Z,1018.10
2018-03-01T06:59:33.673Z,1018.04
2018-03-01T07:00:33.664Z,1017.99
2018-03-01T07:01:33.635Z,1017.93
2018-03-01T07:02:33.615Z,1017.93
2018-03-01T07:03:33.598Z,1017.89
2018-03-01T07:04:33.579Z,1017.93
2018-03-01T07:05:33.561Z,1017.84
2018-03-01T07:06:33.541Z,1017.76
2018-03-01T07:07:33.523Z,1017.80
2018-03-01T07:08:33.510Z,1017.80
2018-03-01T07:09:33.531Z,1017.83
2018-03-01T07:10:33.478Z,1017.78
2018-03-01T07:11:33.482Z,1017.69
2018-03-01T07:12:33.435Z,1017.73
2018-03-01T07:13:33.414Z,1017.67
2018-03-01T07:14:33.398Z,1017.66
2018-03-01T07:15:33.379Z,1017.63
2018-03-01T07:16:33.362Z,1017.60
2018-03-01T07:17:33.359Z,1017.58
2018-03-01T07:18:33.325Z,1017.64
2018-03-01T07:19:33.308Z,1017.58
2018-03-01T07:20:33.288Z,1017.62
2018-03-01T07:21:33.271Z,1017.52
2018-03-01T07:22:33.281Z,1017.59
2018-03-01T07:23:33.232Z,1017.52
2018-03-01T07:24:33.216Z,1017.58
2018-03-01T07:25:33.198Z,1017.59
2018-03-01T07:26:33.181Z,1017.55
2018-03-01T07:27:33.165Z,1017.51
2018-03-01T07:28:33.143Z,1017.52
2018-03-01T07:29:33.132Z,1017.49
2018-03-01T07:30:33.107Z,1017.55
2018-03-01T07:31:33.091Z,1017.52
2018-03-01T07:32:33.074Z,1017.50
2018-03-01T07:33:33.059Z,1017.51
2018-03-01T07:34:33.035Z,1017.48
2018-03-01T07:35:33.016Z,1017.51
2018-03-01T07:36:32.999Z,1017.50
2018-03-01T07:37:32.981Z,1017.51
2018-03-01T07:38:32.963Z,1017.51
2018-03-01T07:39:32.946Z,1017.50
2018-03-01T07:40:32.930Z,1017.53
2018-03-01T07:41:32.906Z,1017.49
2018-03-01T07:42:32.889Z,1017.53
2018-03-01T07:43:32.869Z,1017.56
2018-03-01T07:44:32.854Z,1017.64
2018-03-01T07:45:32.845Z,1017.61
2018-03-01T07:46:32.820Z,1017.61
2018-03-01T07:47:32.800Z,1017.63
2018-03-01T07:48:32.780Z,1017.60
2018-03-01T07:49:32.765Z,1017.70
2018-03-01T07:50:32.748Z,1017.65
2018-03-01T07:51:32.730Z,1017.65
2018-03-01T07:52:32.713Z,1017.64
2018-03-01T07:53:32.699Z,1017.69
2018-03-01T07:54:32.684Z,1017.67
2018-03-01T07:55:32.659Z,1017.64
2018-03-01T07:56:32.666Z,1017.68
2018-03-01T07:57:32.622Z,1017.63
2018-03-01T07:58:32.606Z,1017.57
2018-03-01T07:59:32.590Z,1017.59
2018-03-01T08:00:33.436Z,1017.59
2018-03-01T08:01:32.551Z,1017.54
2018-03-01T08:02:32.536Z,1017.42
2018-03-01T08:03:32.594Z,1017.57
2018-03-01T08:04:32.501Z,1017.53
2018-03-01T08:05:32.480Z,1017.65
2018-03-01T08:06:32.465Z,1017.57
2018-03-01T08:07:32.451Z,1017.63
2018-03-01T08:08:32.433Z,1017.59
2018-03-01T08:09:32.416Z,1017.56
2018-03-01T08:10:32.396Z,1017.63
2018-03-01T08:11:32.378Z,1017.64
2018-03-01T08:12:32.362Z,1017.70
2018-03-01T08:13:32.440Z,1017.65
2018-03-01T08:14:32.522Z,1017.64
2018-03-01T08:15:32.309Z,1017.69
2018-03-01T08:16:32.291Z,1017.67
2018-03-01T08:17:32.273Z,1017.62
2018-03-01T08:18:32.251Z,1017.62
2018-03-01T08:19:32.239Z,1017.64
2018-03-01T08:20:32.221Z,1017.63
2018-03-01T08:21:32.204Z,1017.66
2018-03-01T08:22:32.186Z,1017.64
2018-03-01T08:23:32.170Z,1017.55
2018-03-01T08:24:32.152Z,1017.54
2018-03-01T08:25:32.193Z,1017.54
2018-03-01T08:26:32.118Z,1017.52
2018-03-01T08:27:32.100Z,1017.42
2018-03-01T08:28:32.082Z,1017.50
2018-03-01T08:29:32.064Z,1017.48
2018-03-01T08:30:32.046Z,1017.46
2018-03-01T08:31:32.028Z,1017.48
2018-03-01T08:32:32.024Z,1017.48
2018-03-01T08:33:31.997Z,1017.41
2018-03-01T08:34:32.018Z,1017.45
2018-03-01T08:35:31.962Z,1017.36
2018-03-01T08:36:31.943Z,1017.42
2018-03-01T08:37:31.919Z,1017.35
2018-03-01T08:38:31.906Z,1017.37
2018-03-01T08:39:31.887Z,1017.33
2018-03-01T08:40:31.884Z,1017.31
2018-03-01T08:41:31.854Z,1017.31
2018-03-01T08:42:31.836Z,1017.28
2018-03-01T08:43:31.820Z,1017.26
2018-03-01T08:44:31.804Z,1017.27
2018-03-01T08:45:31.817Z,1017.14
2018-03-01T08:46:31.770Z,1017.17
2018-03-01T08:47:31.752Z,1017.26
2018-03-01T08:48:31.730Z,1017.13
2018-03-01T08:49:31.715Z,1017.19
2018-03-01T08:50:31.697Z,1017.13
2018-03-01T08:51:31.685Z,1017.17
2018-03-01T08:52:31.664Z,1017.13
2018-03-01T08:53:31.644Z,1017.17
2018-03-01T08:54:31.625Z,1017.20
2018-03-01T08:55:31.668Z,1017.12
2018-03-01T08:56:31.607Z,1017.14
2018-03-01T08:57:31.574Z,1017.19
2018-03-01T08:58:31.556Z,1017.16
2018-03-01T08:59:31.539Z,1017.15
2018-03-01T09:00:31.522Z,1017.12
2018-03-01T09:01:31.506Z,1017.10
2018-03-01T09:02:31.489Z,1017.06
2018-03-01T09:03:31.472Z,1017.10
2018-03-01T09:04:31.452Z,1016.98
2018-03-01T09:05:31.435Z,1017.05
2018-03-01T09:06:31.422Z,1016.99
2018-03-01T09:07:31.403Z,1017.00
2018-03-01T09:08:31.385Z,1017.02
2018-03-01T09:09:31.363Z,1016.96
2018-03-01T09:10:31.350Z,1016.94
2018-03-01T09:11:31.334Z,1017.03
2018-03-01T09:12:31.317Z,1016.97
2018-03-01T09:13:31.297Z,1016.93
2018-03-01T09:14:31.284Z,1017.04
2018-03-01T09:15:31.265Z,1016.93
2018-03-01T09:16:31.244Z,1016.91
2018-03-01T09:17:31.226Z,1016.93
2018-03-01T09:18:31.212Z,1016.87
2018-03-01T09:19:31.195Z,1016.87
2018-03-01T09:20:31.210Z,1016.88
2018-03-01T09:21:31.163Z,1016.82
2018-03-01T09:22:31.140Z,1016.87
2018-03-01T09:23:31.126Z,1016.91
2018-03-01T09:24:31.109Z,1016.85
2018-03-01T09:25:31.090Z,1016.80
2018-03-01T09:26:31.076Z,1016.79
2018-03-01T09:27:31.074Z,1016.85
2018-03-01T09:28:31.040Z,1016.76
2018-03-01T09:29:31.022Z,1016.83
2018-03-01T09:30:31.009Z,1016.85
2018-03-01T09:31:31.026Z,1016.83
2018-03-01T09:32:30.973Z,1017.01
2018-03-01T09:33:30.957Z,1016.82
2018-03-01T09:34:30.960Z,1016.81
2018-03-01T09:35:30.919Z,1016.70
2018-03-01T09:36:30.905Z,1016.76
2018-03-01T09:37:30.887Z,1016.72
2018-03-01T09:38:30.871Z,1016.60
2018-03-01T09:39:30.854Z,1016.66
2018-03-01T09:40:30.838Z,1016.68
2018-03-01T09:41:30.820Z,1016.66
2018-03-01T09:42:30.806Z,1016.64
2018-03-01T09:43:30.784Z,1016.66
2018-03-01T09:44:30.794Z,1016.58
2018-03-01T09:45:30.753Z,1016.60
2018-03-01T09:46:30.774Z,1016.67
2018-03-01T09:47:30.723Z,1016.63
2018-03-01T09:48:30.701Z,1016.63
2018-03-01T09:49:30.713Z,1016.67
2018-03-01T09:50:30.681Z,1016.67
2018-03-01T09:51:30.647Z,1016.66
2018-03-01T09:52:30.636Z,1016.73
2018-03-01T09:53:30.617Z,1016.62
2018-03-01T09:54:30.603Z,1016.49
2018-03-01T09:55:30.584Z,1016.62
2018-03-01T09:56:30.567Z,1016.58
2018-03-01T09:57:30.551Z,1016.50
2018-03-01T09:58:30.552Z,1016.56
2018-03-01T09:59:30.517Z,1016.55
2018-03-01T10:00:30.498Z,1016.46
2018-03-01T10:01:30.480Z,1016.42
2018-03-01T10:02:30.466Z,1016.55
2018-03-01T10:03:30.449Z,1016.58
2018-03-01T10:04:30.432Z,1016.50
2018-03-01T10:05:30.456Z,1016.52
2018-03-01T10:06:30.420Z,1016.48
2018-03-01T10:07:30.382Z,1016.42
2018-03-01T10:08:30.426Z,1016.39
2018-03-01T10:09:30.367Z,1016.44
2018-03-01T10:10:30.329Z,1016.29
2018-03-01T10:11:30.319Z,1016.33
2018-03-01T10:12:30.299Z,1016.35
2018-03-01T10:13:30.308Z,1016.31
2018-03-01T10:14:30.263Z,1016.31
2018-03-01T10:15:30.246Z,1016.38
2018-03-01T10:16:30.230Z,1016.26
2018-03-01T10:17:30.254Z,1016.31
2018-03-01T10:18:30.221Z,1016.25
2018-03-01T10:19:30.178Z,1016.26
2018-03-01T10:20:30.162Z,1016.28
2018-03-01T10:21:30.143Z,1016.31
2018-03-01T10:22:30.127Z,1016.23
2018-03-01T10:23:30.110Z,1016.21
2018-03-01T10:24:30.095Z,1016.18
2018-03-01T10:25:30.076Z,1016.16
2018-03-01T10:26:30.066Z,1016.17
2018-03-01T10:27:30.044Z,1016.22
2018-03-01T10:28:30.027Z,1016.20
2018-03-01T10:29:30.011Z,1016.20
2018-03-01T10:30:29.995Z,1016.15
2018-03-01T10:31:30.027Z,1016.11
2018-03-01T10:32:29.963Z,1016.19
2018-03-01T10:33:29.944Z,1016.15
2018-03-01T10:34:29.929Z,1016.09
2018-03-01T10:35:29.911Z,1016.10
2018-03-01T10:36:29.897Z,1016.12
2018-03-01T10:37:29.883Z,1016.11
2018-03-01T10:38:29.862Z,1016.13
2018-03-01T10:39:29.847Z,1016.02
2018-03-01T10:40:29.831Z,1016.04
2018-03-01T10:41:29.813Z,1016.01
2018-03-01T10:42:29.795Z,1015.98
2018-03-01T10:43:29.788Z,1015.98
2018-03-01T10:44:29.769Z,1015.98
2018-03-01T10:45:29.748Z,1015.93
2018-03-01T10:46:29.731Z,1015.84
2018-03-01T10:47:29.720Z,1015.80
2018-03-01T10:48:29.701Z,1015.81
2018-03-01T10:49:29.682Z,1015.75
2018-03-01T10:50:29.666Z,1015.78
2018-03-01T10:51:29.652Z,1015.75
2018-03-01T10:52:29.636Z,1015.77
2018-03-01T10:53:29.622Z,1015.78
2018-03-01T10:54:29.603Z,1015.79
2018-03-01T10:55:29.585Z,1015.78
2018-03-01T10:56:29.570Z,1015.72
2018-03-01T10:57:29.552Z,1015.71
2018-03-01T10:58:29.538Z,1015.63
2018-03-01T10:59:29.572Z,1015.54
2018-03-01T11:00:29.509Z,1015.54
2018-03-01T11:01:29.489Z,1015.43
2018-03-01T11:02:29.473Z,1015.44
2018-03-01T11:03:29.456Z,1015.42
2018-03-01T11:04:29.442Z,1015.44
2018-03-01T11:05:29.424Z,1015.44
2018-03-01T11:06:29.411Z,1015.44
2018-03-01T11:07:29.396Z,1015.41
2018-03-01T11:08:29.378Z,1015.45
2018-03-01T11:09:29.361Z,1015.43
2018-03-01T11:10:29.345Z,1015.46
2018-03-01T11:11:29.334Z,1015.40
2018-03-01T11:12:29.316Z,1015.40
2018-03-01T11:13:29.297Z,1015.34
2018-03-01T11:14:29.282Z,1015.32
2018-03-01T11:15:29.271Z,1015.40
2018-03-01T11:16:29.252Z,1015.31
2018-03-01T11:17:29.236Z,1015.33
2018-03-01T11:18:29.220Z,1015.32
2018-03-01T11:19:29.208Z,1015.35
2018-03-01T11:20:29.189Z,1015.30
2018-03-01T11:21:29.172Z,1015.27
2018-03-01T11:22:29.162Z,1015.26
2018-03-01T11:23:29.142Z,1015.30
2018-03-01T11:24:29.128Z,1015.22
2018-03-01T11:25:29.112Z,1015.20
2018-03-01T11:26:29.095Z,1015.13
2018-03-01T11:27:29.083Z,1015.10
2018-03-01T11:28:29.064Z,1015.20
2018-03-01T11:29:29.049Z,1015.14
2018-03-01T11:30:29.032Z,1015.14
2018-03-01T11:31:29.018Z,1015.17
2018-03-01T11:32:29.005Z,1015.15
2018-03-01T11:33:28.986Z,1015.13
2018-03-01T11:34:28.970Z,1015.09
2018-03-01T11:35:28.957Z,1015.10
2018-03-01T11:36:28.941Z,1015.07
2018-03-01T11:37:28.924Z,1014.97
2018-03-01T11:38:28.909Z,1014.96
2018-03-01T11:39:28.894Z,1014.93
2018-03-01T11:40:28.878Z,1014.82
2018-03-01T11:41:28.862Z,1014.81
2018-03-01T11:42:28.845Z,1014.83
2018-03-01T11:43:28.831Z,1014.77
2018-03-01T11:44:28.811Z,1014.81
2018-03-01T11:45:28.796Z,1014.87
2018-03-01T11:46:28.784Z,1014.85
2018-03-01T11:47:28.770Z,1014.90
2018-03-01T11:48:28.755Z,1014.89
2018-03-01T11:49:28.736Z,1014.82
2018-03-01T11:50:28.726Z,1014.81
2018-03-01T11:51:28.708Z,1014.71
2018-03-01T11:52:28.708Z,1014.92
2018-03-01T11:53:28.675Z,1014.79
2018-03-01T11:54:29.120Z,1014.74
2018-03-01T11:55:28.644Z,1014.75
2018-03-01T11:56:28.629Z,1014.68
2018-03-01T11:57:28.612Z,1014.73
2018-03-01T11:58:28.597Z,1014.66
2018-03-01T11:59:28.585Z,1014.65
2018-03-01T12:00:28.567Z,1014.62
2018-03-01T12:01:28.551Z,1014.62
2018-03-01T12:02:28.545Z,1014.56
2018-03-01T12:03:28.522Z,1014.54
2018-03-01T12:04:28.538Z,1014.49
2018-03-01T12:05:28.491Z,1014.43